sensor_id;sensor_type;location;lat;lon;timestamp;P1;durP1;ratioP1;P2;durP2;ratioP2
16969;SDS011;8601;48.718;8.992;2022-10-16T00:01:31;3.47;;;2.27;;
16969;SDS011;8601;48.718;8.992;2022-10-16T00:03:58;3.73;;;1.93;;
16969;SDS011;8601;48.718;8.992;2022-10-16T00:09:16;3.23;;;2.23;;
16969;SDS011;8601;48.718;8.992;2022-10-16T00:11:43;3.03;;;2.10;;
16969;SDS011;8601;48.718;8.992;2022-10-16T00:14:10;4.90;;;2.10;;
16969;SDS011;8601;48.718;8.992;2022-10-16T00:16:38;3.60;;;2.13;;
16969;SDS011;8601;48.718;8.992;2022-10-16T00:19:06;2.30;;;2.10;;
16969;SDS011;8601;48.718;8.992;2022-10-16T00:21:33;4.17;;;2.70;;
16969;SDS011;8601;48.718;8.992;2022-10-16T00:24:02;3.40;;;2.33;;
16969;SDS011;8601;48.718;8.992;2022-10-16T00:26:32;3.53;;;3.23;;
16969;SDS011;8601;48.718;8.992;2022-10-16T00:28:59;4.67;;;2.80;;
16969;SDS011;8601;48.718;8.992;2022-10-16T00:31:27;4.70;;;2.97;;
16969;SDS011;8601;48.718;8.992;2022-10-16T00:33:54;2.57;;;2.23;;
16969;SDS011;8601;48.718;8.992;2022-10-16T00:36:22;8.13;;;2.00;;
16969;SDS011;8601;48.718;8.992;2022-10-16T00:38:51;4.50;;;2.10;;
16969;SDS011;8601;48.718;8.992;2022-10-16T00:41:21;4.60;;;2.10;;
16969;SDS011;8601;48.718;8.992;2022-10-16T00:43:50;5.00;;;2.30;;
16969;SDS011;8601;48.718;8.992;2022-10-16T00:46:19;3.97;;;1.90;;
16969;SDS011;8601;48.718;8.992;2022-10-16T00:48:56;3.33;;;2.10;;
16969;SDS011;8601;48.718;8.992;2022-10-16T00:51:28;4.80;;;2.33;;
16969;SDS011;8601;48.718;8.992;2022-10-16T00:53:58;4.30;;;2.00;;
16969;SDS011;8601;48.718;8.992;2022-10-16T00:56:28;4.80;;;1.80;;
16969;SDS011;8601;48.718;8.992;2022-10-16T00:58:55;4.03;;;2.57;;
16969;SDS011;8601;48.718;8.992;2022-10-16T01:01:22;2.40;;;2.20;;
16969;SDS011;8601;48.718;8.992;2022-10-16T01:03:49;4.33;;;2.63;;
16969;SDS011;8601;48.718;8.992;2022-10-16T01:06:19;3.20;;;2.23;;
16969;SDS011;8601;48.718;8.992;2022-10-16T01:11:41;2.10;;;1.87;;
16969;SDS011;8601;48.718;8.992;2022-10-16T01:14:17;2.37;;;2.00;;
16969;SDS011;8601;48.718;8.992;2022-10-16T01:16:52;2.93;;;2.00;;
16969;SDS011;8601;48.718;8.992;2022-10-16T01:19:26;2.37;;;1.90;;
16969;SDS011;8601;48.718;8.992;2022-10-16T01:22:05;3.07;;;2.10;;
16969;SDS011;8601;48.718;8.992;2022-10-16T01:24:37;2.20;;;2.00;;
16969;SDS011;8601;48.718;8.992;2022-10-16T01:27:11;2.63;;;1.93;;
16969;SDS011;8601;48.718;8.992;2022-10-16T01:29:42;3.00;;;1.87;;
16969;SDS011;8601;48.718;8.992;2022-10-16T01:32:18;7.33;;;2.10;;
16969;SDS011;8601;48.718;8.992;2022-10-16T01:34:56;4.07;;;2.20;;
16969;SDS011;8601;48.718;8.992;2022-10-16T01:37:32;3.73;;;2.17;;
16969;SDS011;8601;48.718;8.992;2022-10-16T01:40:04;3.23;;;2.13;;
16969;SDS011;8601;48.718;8.992;2022-10-16T01:42:35;3.37;;;2.10;;
16969;SDS011;8601;48.718;8.992;2022-10-16T01:45:07;7.30;;;2.17;;
16969;SDS011;8601;48.718;8.992;2022-10-16T01:50:24;3.47;;;2.27;;
16969;SDS011;8601;48.718;8.992;2022-10-16T01:52:52;4.53;;;2.00;;
16969;SDS011;8601;48.718;8.992;2022-10-16T01:55:24;2.03;;;1.83;;
16969;SDS011;8601;48.718;8.992;2022-10-16T01:57:57;2.40;;;1.83;;
16969;SDS011;8601;48.718;8.992;2022-10-16T02:00:25;2.00;;;1.73;;
16969;SDS011;8601;48.718;8.992;2022-10-16T02:02:55;3.67;;;1.80;;
16969;SDS011;8601;48.718;8.992;2022-10-16T02:05:25;6.17;;;2.20;;
16969;SDS011;8601;48.718;8.992;2022-10-16T02:07:56;3.87;;;1.70;;
16969;SDS011;8601;48.718;8.992;2022-10-16T02:10:23;3.53;;;1.70;;
16969;SDS011;8601;48.718;8.992;2022-10-16T02:12:53;1.60;;;1.43;;
16969;SDS011;8601;48.718;8.992;2022-10-16T02:15:24;2.97;;;1.80;;
16969;SDS011;8601;48.718;8.992;2022-10-16T02:17:51;3.50;;;1.70;;
16969;SDS011;8601;48.718;8.992;2022-10-16T02:20:19;2.67;;;2.10;;
16969;SDS011;8601;48.718;8.992;2022-10-16T02:22:53;2.57;;;1.60;;
16969;SDS011;8601;48.718;8.992;2022-10-16T02:28:03;3.50;;;1.80;;
16969;SDS011;8601;48.718;8.992;2022-10-16T02:30:36;2.80;;;1.90;;
16969;SDS011;8601;48.718;8.992;2022-10-16T02:33:09;6.23;;;1.87;;
16969;SDS011;8601;48.718;8.992;2022-10-16T02:35:39;3.27;;;1.90;;
16969;SDS011;8601;48.718;8.992;2022-10-16T02:38:07;3.70;;;1.70;;
16969;SDS011;8601;48.718;8.992;2022-10-16T02:40:35;1.90;;;1.47;;
16969;SDS011;8601;48.718;8.992;2022-10-16T02:43:04;4.97;;;1.70;;
16969;SDS011;8601;48.718;8.992;2022-10-16T02:45:33;3.57;;;1.80;;
16969;SDS011;8601;48.718;8.992;2022-10-16T02:48:01;2.63;;;1.90;;
16969;SDS011;8601;48.718;8.992;2022-10-16T02:50:28;5.40;;;2.00;;
16969;SDS011;8601;48.718;8.992;2022-10-16T02:52:55;4.27;;;1.97;;
16969;SDS011;8601;48.718;8.992;2022-10-16T02:55:22;4.53;;;2.40;;
16969;SDS011;8601;48.718;8.992;2022-10-16T02:57:48;6.30;;;2.77;;
16969;SDS011;8601;48.718;8.992;2022-10-16T03:00:16;3.33;;;1.80;;
16969;SDS011;8601;48.718;8.992;2022-10-16T03:02:43;6.87;;;2.00;;
16969;SDS011;8601;48.718;8.992;2022-10-16T03:05:11;5.37;;;1.77;;
16969;SDS011;8601;48.718;8.992;2022-10-16T03:07:39;2.33;;;1.47;;
16969;SDS011;8601;48.718;8.992;2022-10-16T03:12:51;2.90;;;1.70;;
16969;SDS011;8601;48.718;8.992;2022-10-16T03:15:18;5.00;;;1.90;;
16969;SDS011;8601;48.718;8.992;2022-10-16T03:17:45;6.33;;;2.03;;
16969;SDS011;8601;48.718;8.992;2022-10-16T03:20:13;5.63;;;2.03;;
16969;SDS011;8601;48.718;8.992;2022-10-16T03:22:40;8.33;;;2.07;;
16969;SDS011;8601;48.718;8.992;2022-10-16T03:25:07;5.20;;;1.87;;
16969;SDS011;8601;48.718;8.992;2022-10-16T03:27:39;3.50;;;1.70;;
16969;SDS011;8601;48.718;8.992;2022-10-16T03:30:07;2.70;;;1.70;;
16969;SDS011;8601;48.718;8.992;2022-10-16T03:32:35;4.10;;;2.00;;
16969;SDS011;8601;48.718;8.992;2022-10-16T03:35:02;5.13;;;2.70;;
16969;SDS011;8601;48.718;8.992;2022-10-16T03:37:30;3.93;;;1.90;;
16969;SDS011;8601;48.718;8.992;2022-10-16T03:39:57;6.43;;;1.80;;
16969;SDS011;8601;48.718;8.992;2022-10-16T03:45:22;4.17;;;1.73;;
16969;SDS011;8601;48.718;8.992;2022-10-16T03:47:49;2.43;;;1.80;;
16969;SDS011;8601;48.718;8.992;2022-10-16T03:50:15;8.10;;;2.07;;
16969;SDS011;8601;48.718;8.992;2022-10-16T03:55:56;3.90;;;2.57;;
16969;SDS011;8601;48.718;8.992;2022-10-16T03:58:23;2.00;;;1.80;;
16969;SDS011;8601;48.718;8.992;2022-10-16T04:00:50;3.77;;;2.07;;
16969;SDS011;8601;48.718;8.992;2022-10-16T04:03:17;4.60;;;1.97;;
16969;SDS011;8601;48.718;8.992;2022-10-16T04:05:44;3.43;;;1.60;;
16969;SDS011;8601;48.718;8.992;2022-10-16T04:08:11;1.97;;;1.43;;
16969;SDS011;8601;48.718;8.992;2022-10-16T04:10:38;2.33;;;1.90;;
16969;SDS011;8601;48.718;8.992;2022-10-16T04:13:06;4.07;;;2.50;;
16969;SDS011;8601;48.718;8.992;2022-10-16T04:15:39;2.40;;;1.90;;
16969;SDS011;8601;48.718;8.992;2022-10-16T04:18:06;1.97;;;1.87;;
16969;SDS011;8601;48.718;8.992;2022-10-16T04:20:33;2.10;;;1.90;;
16969;SDS011;8601;48.718;8.992;2022-10-16T04:25:52;6.07;;;2.30;;
16969;SDS011;8601;48.718;8.992;2022-10-16T04:28:20;5.40;;;2.30;;
16969;SDS011;8601;48.718;8.992;2022-10-16T04:31:03;3.00;;;2.30;;
16969;SDS011;8601;48.718;8.992;2022-10-16T04:33:30;3.83;;;1.80;;
16969;SDS011;8601;48.718;8.992;2022-10-16T04:35:57;2.63;;;1.90;;
16969;SDS011;8601;48.718;8.992;2022-10-16T04:38:24;2.97;;;1.80;;
16969;SDS011;8601;48.718;8.992;2022-10-16T04:40:52;3.17;;;2.37;;
16969;SDS011;8601;48.718;8.992;2022-10-16T04:43:20;2.20;;;1.83;;
16969;SDS011;8601;48.718;8.992;2022-10-16T04:45:47;2.10;;;1.50;;
16969;SDS011;8601;48.718;8.992;2022-10-16T04:48:15;2.67;;;1.83;;
16969;SDS011;8601;48.718;8.992;2022-10-16T04:50:42;3.07;;;1.67;;
16969;SDS011;8601;48.718;8.992;2022-10-16T04:56:30;2.60;;;1.90;;
16969;SDS011;8601;48.718;8.992;2022-10-16T04:58:58;3.73;;;1.73;;
16969;SDS011;8601;48.718;8.992;2022-10-16T05:01:25;3.10;;;1.80;;
16969;SDS011;8601;48.718;8.992;2022-10-16T05:03:52;2.40;;;1.70;;
16969;SDS011;8601;48.718;8.992;2022-10-16T05:06:36;3.87;;;1.73;;
16969;SDS011;8601;48.718;8.992;2022-10-16T05:09:04;2.87;;;1.90;;
16969;SDS011;8601;48.718;8.992;2022-10-16T05:11:31;2.93;;;2.03;;
16969;SDS011;8601;48.718;8.992;2022-10-16T05:14:00;2.20;;;1.60;;
16969;SDS011;8601;48.718;8.992;2022-10-16T05:16:40;3.27;;;1.80;;
16969;SDS011;8601;48.718;8.992;2022-10-16T05:19:07;2.87;;;1.77;;
16969;SDS011;8601;48.718;8.992;2022-10-16T05:24:57;2.00;;;1.80;;
16969;SDS011;8601;48.718;8.992;2022-10-16T05:27:24;2.50;;;1.87;;
16969;SDS011;8601;48.718;8.992;2022-10-16T05:29:52;3.00;;;1.70;;
16969;SDS011;8601;48.718;8.992;2022-10-16T05:32:34;4.80;;;2.10;;
16969;SDS011;8601;48.718;8.992;2022-10-16T05:35:02;1.53;;;1.43;;
16969;SDS011;8601;48.718;8.992;2022-10-16T05:37:29;2.87;;;1.90;;
16969;SDS011;8601;48.718;8.992;2022-10-16T05:39:55;1.90;;;1.70;;
16969;SDS011;8601;48.718;8.992;2022-10-16T05:42:22;7.50;;;1.80;;
16969;SDS011;8601;48.718;8.992;2022-10-16T05:45:06;2.70;;;1.77;;
16969;SDS011;8601;48.718;8.992;2022-10-16T05:47:35;6.50;;;2.00;;
16969;SDS011;8601;48.718;8.992;2022-10-16T05:50:02;1.60;;;1.50;;
16969;SDS011;8601;48.718;8.992;2022-10-16T05:52:30;4.13;;;1.90;;
16969;SDS011;8601;48.718;8.992;2022-10-16T05:55:01;2.10;;;1.87;;
16969;SDS011;8601;48.718;8.992;2022-10-16T05:57:29;2.20;;;1.50;;
16969;SDS011;8601;48.718;8.992;2022-10-16T05:59:56;4.63;;;1.90;;
16969;SDS011;8601;48.718;8.992;2022-10-16T06:02:24;2.00;;;1.80;;
16969;SDS011;8601;48.718;8.992;2022-10-16T06:04:51;2.63;;;1.77;;
16969;SDS011;8601;48.718;8.992;2022-10-16T06:07:19;4.23;;;2.00;;
16969;SDS011;8601;48.718;8.992;2022-10-16T06:09:55;5.10;;;1.90;;
16969;SDS011;8601;48.718;8.992;2022-10-16T06:12:21;3.90;;;2.00;;
16969;SDS011;8601;48.718;8.992;2022-10-16T06:14:48;2.27;;;1.80;;
16969;SDS011;8601;48.718;8.992;2022-10-16T06:17:15;3.50;;;2.00;;
16969;SDS011;8601;48.718;8.992;2022-10-16T06:20:01;2.13;;;1.93;;
16969;SDS011;8601;48.718;8.992;2022-10-16T06:22:28;4.00;;;1.90;;
16969;SDS011;8601;48.718;8.992;2022-10-16T06:24:55;3.63;;;1.90;;
16969;SDS011;8601;48.718;8.992;2022-10-16T06:27:22;1.97;;;1.80;;
16969;SDS011;8601;48.718;8.992;2022-10-16T06:29:49;2.03;;;1.83;;
16969;SDS011;8601;48.718;8.992;2022-10-16T06:32:16;4.40;;;2.23;;
16969;SDS011;8601;48.718;8.992;2022-10-16T06:34:43;2.67;;;1.70;;
16969;SDS011;8601;48.718;8.992;2022-10-16T06:37:12;2.27;;;1.80;;
16969;SDS011;8601;48.718;8.992;2022-10-16T06:39:39;4.70;;;1.90;;
16969;SDS011;8601;48.718;8.992;2022-10-16T06:42:05;4.27;;;2.00;;
16969;SDS011;8601;48.718;8.992;2022-10-16T06:44:33;4.63;;;1.80;;
16969;SDS011;8601;48.718;8.992;2022-10-16T06:47:00;3.00;;;1.93;;
16969;SDS011;8601;48.718;8.992;2022-10-16T06:49:27;3.10;;;2.33;;
16969;SDS011;8601;48.718;8.992;2022-10-16T06:51:54;3.20;;;1.90;;
16969;SDS011;8601;48.718;8.992;2022-10-16T06:54:22;3.23;;;1.80;;
16969;SDS011;8601;48.718;8.992;2022-10-16T06:56:50;4.23;;;2.30;;
16969;SDS011;8601;48.718;8.992;2022-10-16T06:59:19;2.57;;;1.70;;
16969;SDS011;8601;48.718;8.992;2022-10-16T07:01:47;2.43;;;1.80;;
16969;SDS011;8601;48.718;8.992;2022-10-16T07:04:13;3.93;;;1.87;;
16969;SDS011;8601;48.718;8.992;2022-10-16T07:06:41;5.00;;;2.00;;
16969;SDS011;8601;48.718;8.992;2022-10-16T07:09:09;4.13;;;1.93;;
16969;SDS011;8601;48.718;8.992;2022-10-16T07:11:38;2.50;;;1.73;;
16969;SDS011;8601;48.718;8.992;2022-10-16T07:14:09;2.10;;;1.90;;
16969;SDS011;8601;48.718;8.992;2022-10-16T07:16:41;5.83;;;1.97;;
16969;SDS011;8601;48.718;8.992;2022-10-16T07:19:09;3.17;;;2.30;;
16969;SDS011;8601;48.718;8.992;2022-10-16T07:21:38;2.33;;;1.80;;
16969;SDS011;8601;48.718;8.992;2022-10-16T07:24:06;2.70;;;1.67;;
16969;SDS011;8601;48.718;8.992;2022-10-16T07:26:34;2.67;;;1.60;;
16969;SDS011;8601;48.718;8.992;2022-10-16T07:29:09;2.90;;;1.60;;
16969;SDS011;8601;48.718;8.992;2022-10-16T07:31:39;2.83;;;1.77;;
16969;SDS011;8601;48.718;8.992;2022-10-16T07:34:06;2.17;;;1.73;;
16969;SDS011;8601;48.718;8.992;2022-10-16T07:36:33;4.23;;;2.07;;
16969;SDS011;8601;48.718;8.992;2022-10-16T07:39:00;2.93;;;2.10;;
16969;SDS011;8601;48.718;8.992;2022-10-16T07:41:27;4.50;;;1.87;;
16969;SDS011;8601;48.718;8.992;2022-10-16T07:43:54;2.20;;;2.00;;
16969;SDS011;8601;48.718;8.992;2022-10-16T07:46:26;4.13;;;1.77;;
16969;SDS011;8601;48.718;8.992;2022-10-16T07:48:53;3.47;;;1.90;;
16969;SDS011;8601;48.718;8.992;2022-10-16T07:51:23;1.67;;;1.57;;
16969;SDS011;8601;48.718;8.992;2022-10-16T07:53:51;3.13;;;1.67;;
16969;SDS011;8601;48.718;8.992;2022-10-16T07:56:19;3.10;;;1.97;;
16969;SDS011;8601;48.718;8.992;2022-10-16T07:58:47;3.50;;;2.00;;
16969;SDS011;8601;48.718;8.992;2022-10-16T08:01:15;3.63;;;1.80;;
16969;SDS011;8601;48.718;8.992;2022-10-16T08:03:45;3.87;;;1.93;;
16969;SDS011;8601;48.718;8.992;2022-10-16T08:06:13;1.87;;;1.77;;
16969;SDS011;8601;48.718;8.992;2022-10-16T08:08:40;4.33;;;1.70;;
16969;SDS011;8601;48.718;8.992;2022-10-16T08:11:07;2.87;;;1.77;;
16969;SDS011;8601;48.718;8.992;2022-10-16T08:13:34;1.50;;;1.40;;
16969;SDS011;8601;48.718;8.992;2022-10-16T08:16:09;2.63;;;1.77;;
16969;SDS011;8601;48.718;8.992;2022-10-16T08:18:39;3.73;;;1.67;;
16969;SDS011;8601;48.718;8.992;2022-10-16T08:21:10;2.37;;;1.67;;
16969;SDS011;8601;48.718;8.992;2022-10-16T08:23:44;2.80;;;1.70;;
16969;SDS011;8601;48.718;8.992;2022-10-16T08:26:11;1.77;;;1.50;;
16969;SDS011;8601;48.718;8.992;2022-10-16T08:28:39;1.93;;;1.70;;
16969;SDS011;8601;48.718;8.992;2022-10-16T08:31:07;2.37;;;1.73;;
16969;SDS011;8601;48.718;8.992;2022-10-16T08:33:35;2.57;;;1.50;;
16969;SDS011;8601;48.718;8.992;2022-10-16T08:36:02;5.30;;;1.90;;
16969;SDS011;8601;48.718;8.992;2022-10-16T08:38:31;1.93;;;1.70;;
16969;SDS011;8601;48.718;8.992;2022-10-16T08:41:01;2.70;;;1.30;;
16969;SDS011;8601;48.718;8.992;2022-10-16T08:43:43;3.70;;;1.77;;
16969;SDS011;8601;48.718;8.992;2022-10-16T08:46:25;3.73;;;1.77;;
16969;SDS011;8601;48.718;8.992;2022-10-16T08:48:59;1.70;;;1.23;;
16969;SDS011;8601;48.718;8.992;2022-10-16T08:51:29;2.50;;;2.30;;
16969;SDS011;8601;48.718;8.992;2022-10-16T08:53:59;3.50;;;1.70;;
16969;SDS011;8601;48.718;8.992;2022-10-16T08:56:29;3.00;;;1.50;;
16969;SDS011;8601;48.718;8.992;2022-10-16T08:59:01;2.37;;;1.27;;
16969;SDS011;8601;48.718;8.992;2022-10-16T09:01:33;3.23;;;1.87;;
16969;SDS011;8601;48.718;8.992;2022-10-16T09:07:14;2.50;;;1.57;;
16969;SDS011;8601;48.718;8.992;2022-10-16T09:09:59;2.40;;;1.63;;
16969;SDS011;8601;48.718;8.992;2022-10-16T09:12:51;2.00;;;1.57;;
16969;SDS011;8601;48.718;8.992;2022-10-16T09:15:31;2.50;;;1.43;;
16969;SDS011;8601;48.718;8.992;2022-10-16T09:18:15;3.23;;;1.47;;
16969;SDS011;8601;48.718;8.992;2022-10-16T09:20:56;2.93;;;1.87;;
16969;SDS011;8601;48.718;8.992;2022-10-16T09:23:33;3.10;;;1.97;;
16969;SDS011;8601;48.718;8.992;2022-10-16T09:26:02;3.33;;;1.30;;
16969;SDS011;8601;48.718;8.992;2022-10-16T09:28:32;4.17;;;1.90;;
16969;SDS011;8601;48.718;8.992;2022-10-16T09:33:29;4.40;;;2.27;;
16969;SDS011;8601;48.718;8.992;2022-10-16T09:36:00;2.90;;;2.37;;
16969;SDS011;8601;48.718;8.992;2022-10-16T09:38:32;3.37;;;1.90;;
16969;SDS011;8601;48.718;8.992;2022-10-16T09:41:01;1.80;;;1.50;;
16969;SDS011;8601;48.718;8.992;2022-10-16T09:43:39;2.57;;;1.60;;
16969;SDS011;8601;48.718;8.992;2022-10-16T09:46:08;2.90;;;1.50;;
16969;SDS011;8601;48.718;8.992;2022-10-16T09:49:03;2.47;;;1.60;;
16969;SDS011;8601;48.718;8.992;2022-10-16T09:51:31;2.73;;;2.00;;
16969;SDS011;8601;48.718;8.992;2022-10-16T09:54:01;1.53;;;1.40;;
16969;SDS011;8601;48.718;8.992;2022-10-16T09:56:40;2.93;;;1.50;;
16969;SDS011;8601;48.718;8.992;2022-10-16T09:59:11;3.17;;;1.50;;
16969;SDS011;8601;48.718;8.992;2022-10-16T10:01:43;4.20;;;1.30;;
16969;SDS011;8601;48.718;8.992;2022-10-16T10:04:12;3.50;;;1.50;;
16969;SDS011;8601;48.718;8.992;2022-10-16T10:06:41;4.37;;;1.77;;
16969;SDS011;8601;48.718;8.992;2022-10-16T10:09:17;2.47;;;1.67;;
16969;SDS011;8601;48.718;8.992;2022-10-16T10:14:54;2.87;;;1.37;;
16969;SDS011;8601;48.718;8.992;2022-10-16T10:17:23;2.03;;;1.43;;
16969;SDS011;8601;48.718;8.992;2022-10-16T10:19:52;1.87;;;1.47;;
16969;SDS011;8601;48.718;8.992;2022-10-16T10:22:28;4.87;;;1.47;;
16969;SDS011;8601;48.718;8.992;2022-10-16T10:28:15;4.10;;;1.33;;
16969;SDS011;8601;48.718;8.992;2022-10-16T10:30:52;2.57;;;1.10;;
16969;SDS011;8601;48.718;8.992;2022-10-16T10:33:28;4.07;;;1.60;;
16969;SDS011;8601;48.718;8.992;2022-10-16T10:36:08;6.00;;;1.70;;
16969;SDS011;8601;48.718;8.992;2022-10-16T10:38:45;1.43;;;1.33;;
16969;SDS011;8601;48.718;8.992;2022-10-16T10:41:23;3.93;;;1.40;;
16969;SDS011;8601;48.718;8.992;2022-10-16T10:44:08;4.90;;;1.40;;
16969;SDS011;8601;48.718;8.992;2022-10-16T10:46:47;2.23;;;1.63;;
16969;SDS011;8601;48.718;8.992;2022-10-16T10:49:24;1.53;;;1.20;;
16969;SDS011;8601;48.718;8.992;2022-10-16T10:52:06;1.70;;;1.33;;
16969;SDS011;8601;48.718;8.992;2022-10-16T10:54:41;3.10;;;1.30;;
16969;SDS011;8601;48.718;8.992;2022-10-16T11:00:17;1.47;;;1.37;;
16969;SDS011;8601;48.718;8.992;2022-10-16T11:03:01;3.13;;;1.20;;
16969;SDS011;8601;48.718;8.992;2022-10-16T11:05:37;3.47;;;1.50;;
16969;SDS011;8601;48.718;8.992;2022-10-16T11:08:26;2.80;;;1.63;;
16969;SDS011;8601;48.718;8.992;2022-10-16T11:11:14;3.37;;;1.40;;
16969;SDS011;8601;48.718;8.992;2022-10-16T11:13:48;4.40;;;1.50;;
16969;SDS011;8601;48.718;8.992;2022-10-16T11:16:24;1.30;;;1.20;;
16969;SDS011;8601;48.718;8.992;2022-10-16T11:18:56;2.40;;;1.40;;
16969;SDS011;8601;48.718;8.992;2022-10-16T11:21:29;4.50;;;1.40;;
16969;SDS011;8601;48.718;8.992;2022-10-16T11:24:04;2.17;;;1.60;;
16969;SDS011;8601;48.718;8.992;2022-10-16T11:26:51;2.40;;;1.40;;
16969;SDS011;8601;48.718;8.992;2022-10-16T11:29:22;2.53;;;1.40;;
16969;SDS011;8601;48.718;8.992;2022-10-16T11:31:54;2.60;;;1.27;;
16969;SDS011;8601;48.718;8.992;2022-10-16T11:34:28;2.47;;;1.30;;
16969;SDS011;8601;48.718;8.992;2022-10-16T11:37:01;2.53;;;1.20;;
16969;SDS011;8601;48.718;8.992;2022-10-16T11:39:31;5.50;;;1.30;;
16969;SDS011;8601;48.718;8.992;2022-10-16T11:42:13;3.63;;;1.60;;
16969;SDS011;8601;48.718;8.992;2022-10-16T11:44:48;2.53;;;1.30;;
16969;SDS011;8601;48.718;8.992;2022-10-16T11:47:25;2.80;;;1.30;;
16969;SDS011;8601;48.718;8.992;2022-10-16T11:49:58;1.50;;;1.23;;
16969;SDS011;8601;48.718;8.992;2022-10-16T11:52:28;2.10;;;1.23;;
16969;SDS011;8601;48.718;8.992;2022-10-16T11:55:04;1.30;;;1.17;;
16969;SDS011;8601;48.718;8.992;2022-10-16T11:57:40;3.43;;;1.30;;
16969;SDS011;8601;48.718;8.992;2022-10-16T12:00:26;1.80;;;1.10;;
16969;SDS011;8601;48.718;8.992;2022-10-16T12:02:58;2.70;;;1.20;;
16969;SDS011;8601;48.718;8.992;2022-10-16T12:08:40;1.60;;;1.27;;
16969;SDS011;8601;48.718;8.992;2022-10-16T12:11:09;1.37;;;1.00;;
16969;SDS011;8601;48.718;8.992;2022-10-16T12:13:49;1.43;;;1.00;;
16969;SDS011;8601;48.718;8.992;2022-10-16T12:16:23;2.10;;;1.10;;
16969;SDS011;8601;48.718;8.992;2022-10-16T12:21:50;1.63;;;1.13;;
16969;SDS011;8601;48.718;8.992;2022-10-16T12:24:26;1.17;;;0.97;;
16969;SDS011;8601;48.718;8.992;2022-10-16T12:26:58;2.33;;;1.10;;
16969;SDS011;8601;48.718;8.992;2022-10-16T12:29:28;3.87;;;1.13;;
16969;SDS011;8601;48.718;8.992;2022-10-16T12:31:59;1.43;;;1.20;;
16969;SDS011;8601;48.718;8.992;2022-10-16T12:34:35;1.40;;;1.13;;
16969;SDS011;8601;48.718;8.992;2022-10-16T12:37:08;1.77;;;1.27;;
16969;SDS011;8601;48.718;8.992;2022-10-16T12:39:39;2.20;;;1.43;;
16969;SDS011;8601;48.718;8.992;2022-10-16T12:42:19;5.43;;;1.30;;
16969;SDS011;8601;48.718;8.992;2022-10-16T12:47:49;2.10;;;1.10;;
16969;SDS011;8601;48.718;8.992;2022-10-16T12:50:34;1.63;;;1.30;;
16969;SDS011;8601;48.718;8.992;2022-10-16T12:53:04;2.73;;;1.40;;
16969;SDS011;8601;48.718;8.992;2022-10-16T12:55:48;1.33;;;1.23;;
16969;SDS011;8601;48.718;8.992;2022-10-16T12:58:39;2.43;;;1.57;;
16969;SDS011;8601;48.718;8.992;2022-10-16T13:01:29;1.80;;;1.57;;
16969;SDS011;8601;48.718;8.992;2022-10-16T13:04:15;1.87;;;1.57;;
16969;SDS011;8601;48.718;8.992;2022-10-16T13:06:59;2.17;;;1.70;;
16969;SDS011;8601;48.718;8.992;2022-10-16T13:09:44;3.20;;;1.77;;
16969;SDS011;8601;48.718;8.992;2022-10-16T13:12:26;1.60;;;1.50;;
16969;SDS011;8601;48.718;8.992;2022-10-16T13:15:13;1.97;;;1.60;;
16969;SDS011;8601;48.718;8.992;2022-10-16T13:18:04;12.10;;;2.20;;
16969;SDS011;8601;48.718;8.992;2022-10-16T13:23:35;2.33;;;1.53;;
16969;SDS011;8601;48.718;8.992;2022-10-16T13:26:17;2.50;;;1.47;;
16969;SDS011;8601;48.718;8.992;2022-10-16T13:28:51;7.20;;;1.80;;
16969;SDS011;8601;48.718;8.992;2022-10-16T13:33:52;1.70;;;1.60;;
16969;SDS011;8601;48.718;8.992;2022-10-16T13:36:24;1.70;;;1.60;;
16969;SDS011;8601;48.718;8.992;2022-10-16T13:39:07;6.20;;;1.80;;
16969;SDS011;8601;48.718;8.992;2022-10-16T13:41:39;1.70;;;1.60;;
16969;SDS011;8601;48.718;8.992;2022-10-16T13:44:11;2.30;;;1.13;;
16969;SDS011;8601;48.718;8.992;2022-10-16T13:46:41;3.70;;;2.00;;
16969;SDS011;8601;48.718;8.992;2022-10-16T13:49:19;2.93;;;1.70;;
16969;SDS011;8601;48.718;8.992;2022-10-16T13:51:53;9.30;;;1.87;;
16969;SDS011;8601;48.718;8.992;2022-10-16T13:54:23;9.07;;;2.00;;
16969;SDS011;8601;48.718;8.992;2022-10-16T13:56:52;9.53;;;2.30;;
16969;SDS011;8601;48.718;8.992;2022-10-16T13:59:34;13.33;;;2.67;;
16969;SDS011;8601;48.718;8.992;2022-10-16T14:02:05;8.90;;;2.40;;
16969;SDS011;8601;48.718;8.992;2022-10-16T14:07:17;8.87;;;2.70;;
16969;SDS011;8601;48.718;8.992;2022-10-16T14:09:49;6.37;;;2.20;;
16969;SDS011;8601;48.718;8.992;2022-10-16T14:12:18;3.07;;;1.90;;
16969;SDS011;8601;48.718;8.992;2022-10-16T14:14:48;6.37;;;2.20;;
16969;SDS011;8601;48.718;8.992;2022-10-16T14:17:18;3.93;;;1.87;;
16969;SDS011;8601;48.718;8.992;2022-10-16T14:19:46;9.63;;;2.00;;
16969;SDS011;8601;48.718;8.992;2022-10-16T14:22:21;5.53;;;1.90;;
16969;SDS011;8601;48.718;8.992;2022-10-16T14:24:57;6.83;;;2.20;;
16969;SDS011;8601;48.718;8.992;2022-10-16T14:27:26;11.93;;;2.40;;
16969;SDS011;8601;48.718;8.992;2022-10-16T14:35:59;6.47;;;2.13;;
16969;SDS011;8601;48.718;8.992;2022-10-16T14:38:33;11.37;;;3.00;;
16969;SDS011;8601;48.718;8.992;2022-10-16T14:43:40;9.63;;;2.60;;
16969;SDS011;8601;48.718;8.992;2022-10-16T14:52:28;13.53;;;2.40;;
16969;SDS011;8601;48.718;8.992;2022-10-16T14:54:55;5.53;;;2.00;;
16969;SDS011;8601;48.718;8.992;2022-10-16T14:57:22;3.00;;;1.80;;
16969;SDS011;8601;48.718;8.992;2022-10-16T14:59:52;2.50;;;1.40;;
16969;SDS011;8601;48.718;8.992;2022-10-16T15:02:23;2.63;;;1.70;;
16969;SDS011;8601;48.718;8.992;2022-10-16T15:05:10;4.33;;;1.83;;
16969;SDS011;8601;48.718;8.992;2022-10-16T15:10:12;5.30;;;2.30;;
16969;SDS011;8601;48.718;8.992;2022-10-16T15:12:40;2.90;;;2.00;;
16969;SDS011;8601;48.718;8.992;2022-10-16T15:18:02;5.47;;;2.10;;
16969;SDS011;8601;48.718;8.992;2022-10-16T15:20:30;6.20;;;2.60;;
16969;SDS011;8601;48.718;8.992;2022-10-16T15:23:00;4.57;;;2.00;;
16969;SDS011;8601;48.718;8.992;2022-10-16T15:28:18;3.77;;;1.80;;
16969;SDS011;8601;48.718;8.992;2022-10-16T15:30:46;7.47;;;2.10;;
16969;SDS011;8601;48.718;8.992;2022-10-16T15:33:15;7.83;;;2.30;;
16969;SDS011;8601;48.718;8.992;2022-10-16T15:35:55;8.20;;;2.20;;
16969;SDS011;8601;48.718;8.992;2022-10-16T15:38:23;8.30;;;2.40;;
16969;SDS011;8601;48.718;8.992;2022-10-16T15:40:52;10.50;;;3.03;;
16969;SDS011;8601;48.718;8.992;2022-10-16T15:43:19;10.17;;;2.80;;
16969;SDS011;8601;48.718;8.992;2022-10-16T15:45:46;8.40;;;2.80;;
16969;SDS011;8601;48.718;8.992;2022-10-16T15:48:25;7.40;;;2.10;;
16969;SDS011;8601;48.718;8.992;2022-10-16T15:51:10;4.73;;;2.30;;
16969;SDS011;8601;48.718;8.992;2022-10-16T15:53:50;4.47;;;2.43;;
16969;SDS011;8601;48.718;8.992;2022-10-16T15:56:17;4.23;;;1.90;;
16969;SDS011;8601;48.718;8.992;2022-10-16T15:58:44;10.50;;;2.13;;
16969;SDS011;8601;48.718;8.992;2022-10-16T16:01:11;3.47;;;1.60;;
16969;SDS011;8601;48.718;8.992;2022-10-16T16:06:27;8.33;;;2.30;;
16969;SDS011;8601;48.718;8.992;2022-10-16T16:09:08;4.43;;;1.80;;
16969;SDS011;8601;48.718;8.992;2022-10-16T16:11:35;6.63;;;2.00;;
16969;SDS011;8601;48.718;8.992;2022-10-16T16:14:03;9.33;;;2.17;;
16969;SDS011;8601;48.718;8.992;2022-10-16T16:16:31;5.23;;;2.20;;
16969;SDS011;8601;48.718;8.992;2022-10-16T16:19:03;7.53;;;2.43;;
16969;SDS011;8601;48.718;8.992;2022-10-16T16:21:40;4.33;;;2.60;;
16969;SDS011;8601;48.718;8.992;2022-10-16T16:24:10;7.80;;;2.30;;
16969;SDS011;8601;48.718;8.992;2022-10-16T16:29:29;5.23;;;2.57;;
16969;SDS011;8601;48.718;8.992;2022-10-16T16:31:58;6.03;;;2.60;;
16969;SDS011;8601;48.718;8.992;2022-10-16T16:34:27;6.63;;;2.43;;
16969;SDS011;8601;48.718;8.992;2022-10-16T16:36:55;10.33;;;2.60;;
16969;SDS011;8601;48.718;8.992;2022-10-16T16:39:23;5.47;;;2.37;;
16969;SDS011;8601;48.718;8.992;2022-10-16T16:44:41;4.60;;;2.67;;
16969;SDS011;8601;48.718;8.992;2022-10-16T16:47:10;4.87;;;2.23;;
16969;SDS011;8601;48.718;8.992;2022-10-16T16:49:37;6.87;;;2.40;;
16969;SDS011;8601;48.718;8.992;2022-10-16T16:52:06;5.87;;;2.30;;
16969;SDS011;8601;48.718;8.992;2022-10-16T16:54:35;5.57;;;2.33;;
16969;SDS011;8601;48.718;8.992;2022-10-16T16:57:02;3.13;;;2.23;;
16969;SDS011;8601;48.718;8.992;2022-10-16T16:59:29;3.97;;;2.40;;